Historyczne dane pomiarowe

Dodano dane terminowe – wersja testowa.

Dane z okresu 1951-2019

Wersja bazy: 1.34 [2019-03-16, lista zmian], aktualizacja planowana na 2019-04-15

Dane meteo z obszaru Polski uzyskane na podstawie danych udostępnionych przez Instytut Meteorologii i Gospodarki Wodnej – Państwowy Instytut Badawczy.

 

Wybierz Datę:    

       

TemperaturaWilgotnośćWiatrCiśnienieOpadyŚniegCzas trwania zjawisk
 Stacja t tx tn tng RH VA  wxwx mslp ppp RRR   cm mm wxwxwxwxwxwxwx
1961-08-14 13.8 18.8 8.3- 81.3- 3.7 2.7---- 0.0------------
1961-08-13 13.0 17.6 11.2- 79.5- 3.7 3.3---- 0.0------------
1961-08-12 16.9 21.5 13.2- 90.8- 6.3 2.3---- 0.0------------
1961-08-11 15.9 19.2 14.7- 95.3- 8.0 2.3---- 9.2------------
1961-08-10 17.7 20.8 10.5- 81.3- 6.0 0.7---- 0.3------------
1961-08-09 18.6 25.7 11.1- 72.8- 4.0 3.0---- 0.3------------
1961-08-08 16.1 19.8 10.8- 79.8- 4.3 2.3---- 0.0------------
1961-08-07 14.5 17.2 13.4- 93.8- 7.3 1.0---- 13.6------------
1961-08-06 19.6 27.7 14.1- 81.3- 5.7 3.0---- 0.0------------
1961-08-05 16.3 20.7 12.6- 83.5- 5.3 3.3---- 0.6------------
1961-08-04 13.7 17.6 8.7- 84.8- 6.0 2.0---- 3.1------------
1961-08-03 15.1 19.0 10.8- 92.0- 7.3 2.7---- 1.0------------
1961-08-02 17.4 22.5 10.8- 81.0- 4.3 4.0---- 15.2------------
1961-08-01 13.5 16.1 11.5- 95.0- 8.0 3.7---- 16.1------------
1961-07-31 14.1 16.5 12.4- 96.0- 7.7 3.0---- 7.5------------
1961-07-30 14.5 17.6 9.0- 88.5- 7.3 1.0---- 12.1------------
1961-07-29 14.1 18.6 12.4- 83.8- 5.3 3.0---- 0.0------------
1961-07-28 14.3 16.7 12.4- 94.3- 8.0 1.3---- 11.7------------
1961-07-27 16.9 22.2 14.6- 84.3- 7.3 2.0---- 0.0------------
1961-07-26 15.3 17.1 10.4- 86.5- 8.0 3.0---- 2.4------------
1961-07-25 14.2 17.1 10.4- 80.0- 7.3 3.7---- 0.0------------
1961-07-24 13.8 16.7 11.1- 90.3- 7.0 3.3---- 4.3------------
1961-07-23 14.4 18.4 12.5- 89.3- 7.0 2.0---- 3.3------------
1961-07-22 14.4 16.6 12.6- 94.5- 7.7 2.7---- 10.6------------
1961-07-21 14.2 17.5 10.3- 93.5- 6.7 2.0---- 17.3------------
1961-07-20 15.9 22.0 12.0- 78.5- 2.7 1.7---- 0.0------------
1961-07-19 16.0 21.1 8.0- 85.0- 4.7 2.0---- 2.5------------
1961-07-18 13.6 17.5 8.0- 88.5- 7.7 1.3---- 1.4------------
1961-07-17 15.9 22.2 8.1- 80.8- 7.0 0.7---- 0.0------------
1961-07-16 13.7 18.4 8.3- 92.8- 6.3 1.0---- 9.8------------
1961-07-15 15.9 21.6 9.9- 82.8- 4.3 1.7---- 0.5------------
1961-07-14 14.1 22.8 12.7- 86.3- 8.0 3.0---- 0.0------------
1961-07-13 22.2 27.2 13.2- 70.8- 6.0 3.3---- 23.0------------
1961-07-12 17.6 23.4 13.0- 83.3- 4.3 1.0---- 0.0------------
1961-07-11 14.6 19.2 10.1- 72.3- 4.0 2.7---- 0.7------------
1961-07-10 13.7 17.1 11.0- 76.8- 7.0 3.7---- 0.0------------
1961-07-09 15.9 23.5 9.5- 76.3- 4.0 4.0---- 9.4------------
1961-07-08 14.0 18.8 9.1- 84.0- 5.7 1.3---- 0.4------------
1961-07-07 12.0 16.0 9.1- 81.3- 6.0 2.3---- 2.3------------
1961-07-06 12.2 16.8 8.0- 78.0- 6.3 4.0---- 1.6------------
1961-07-05 14.2 17.0 12.4- 67.0- 6.3 4.3---- 0.1------------
1961-07-04 16.8 24.4 14.0- 78.8- 5.0 3.0---- 1.3------------
1961-07-03 24.6 30.8 12.3- 49.0- 1.3 2.0---- 3.0------------
1961-07-02 20.7 26.8 12.3- 61.3- 0.0 1.3---- 0.0------------
1961-07-01 16.8 24.6 7.4- 80.3- 3.7 1.0---- 0.0------------
1961-06-30 15.7 22.9 10.5- 78.3- 0.0 3.0---- 0.0------------
1961-06-29 14.3 17.1 9.9- 81.5- 5.3 3.0---- 0.0------------
1961-06-28 14.3 21.3 12.5- 68.3- 4.7 4.7---- 0.5------------
1961-06-27 22.9 31.0 15.2- 79.0- 5.0 2.0---- 15.0------------
1961-06-26 20.0 25.9 15.2- 67.5- 1.0 2.3---- 0.0------------
1961-06-25 21.2 26.4 14.9- 54.3- 5.0 3.7---- 0.0------------
1961-06-24 16.6 20.0 12.6- 66.3- 7.3 2.3---- 0.0------------
1961-06-23 16.4 22.6 12.0- 76.5- 5.0 2.7---- 0.0------------
1961-06-22 15.5 20.2 8.4- 68.0- 2.3 2.3---- 0.0------------
1961-06-21 13.3 20.4 8.5- 77.0- 6.3 2.3---- 2.8------------
1961-06-20 13.2 17.1 9.7- 69.5- 3.3 3.7---- 0.0------------
1961-06-19 15.7 21.7 13.9- 62.3- 2.3 4.3---- 0.0------------
1961-06-18 21.3 25.7 11.1- 63.0- 7.3 4.0---- 2.0------------
1961-06-17 16.4 21.1 11.0- 81.5- 7.7 3.7---- 0.0------------
1961-06-16 13.1 16.1 11.5- 94.0- 8.0 4.3---- 15.3------------
432.7 ms

 

Źródłem pochodzenia danych jest Instytut Meteorologii i Gospodarki Wodnej – Państwowy Instytut Badawczy. Dane Instytutu Meteorologii i Gospodarki Wodnej – Państwowego Instytutu Badawczego zostały przetworzone.

Dane źródłowe można odnaleźć na stronie https://dane.imgw.pl